Otagawa — JD3046 — position and weather

sailwx.info

Track history (hours):
 
Tides and Currents Weather Stations Pressure Air Temp Water Temp Dewpoint Dewpoint Depression Visibility Wind Speed Wind Dir Waves Ship Positions

Otagawa

Last reported at 2016-May-02 04:24 UTC. Time now 2016-May-02 21:16 UTC.
Position N 35°04' E 139°34'.

Length 70 m; draft 4.5 m.

Type: Ship. MMSI: 431001328.

Date/timePositionNaut miles runAvg speedWind from/ knotsBaromVisibWave heightAir tempDewpointWater temp
2016-May-02 04:24N 35°04' E 139°34'910.5
2016-May-02 03:33N 35°09' E 139°43'10 9.7
2016-May-02 02:33N 35°18' E 139°43'9 9.5
2016-May-02 01:33N 35°28' E 139°47'8 8.4
2016-May-02 00:33N 35°36' E 139°47'1 1.1
2016-May-01 23:33N 35°37' E 139°46'0 0.0
2016-May-01 22:33N 35°37' E 139°46'2 1.8
2016-May-01 21:33N 35°35' E 139°47'3 2.5
2016-May-01 20:33N 35°34' E 139°50'0 0.0
2016-May-01 19:33N 35°34' E 139°50'0 0.0
2016-May-01 18:33N 35°34' E 139°50'2 2.1
2016-May-01 17:33N 35°32' E 139°51'9 9.3
2016-May-01 16:34N 35°24' E 139°46'9 9.1
2016-May-01 15:33N 35°15' E 139°47'1010.3
2016-May-01 14:33N 35°05' E 139°45'9 9.2
2016-May-01 13:33N 34°56' E 139°46'9 8.7
2016-May-01 12:30N 34°53' E 139°56'9 9.2
2016-May-01 11:33N 34°58' E 140°05'9 9.3
2016-May-01 10:32N 35°03' E 140°15'11 9.0
2016-May-01 09:16N 35°11' E 140°25'7 9.4
2016-May-01 08:33N 35°17' E 140°30'9 9.2
2016-May-01 07:33N 35°24' E 140°36'8 8.6
2016-May-01 06:34N 35°30' E 140°43'10 9.9
2016-May-01 05:32N 35°38' E 140°51'20 9.9
2016-May-01 03:32N 35°58' E 140°56'  
2016-Apr-28 22:10N 35°04' E 140°17'6 9.8
2016-Apr-28 21:33N 35°00' E 140°11'12 9.7
2016-Apr-28 20:16N 34°54' E 139°58'14 8.1
2016-Apr-28 18:33N 35°00' E 139°43'1010.5
2016-Apr-28 17:34N 35°10' E 139°46'1010.2
2016-Apr-28 16:33N 35°20' E 139°42'1010.0
2016-Apr-28 15:33N 35°28' E 139°49'6 4.3
2016-Apr-28 14:13N 35°34' E 139°50'0 0.0
2016-Apr-28 13:19N 35°34' E 139°50'0 0.0
2016-Apr-28 12:19N 35°34' E 139°50'0 0.0
2016-Apr-28 11:31N 35°34' E 139°50'4 3.8
2016-Apr-28 10:33N 35°36' E 139°47'1 1.1
2016-Apr-28 09:33N 35°37' E 139°46'1 0.9
2016-Apr-28 08:33N 35°36' E 139°46'0 0.0
2016-Apr-28 07:33N 35°36' E 139°46'0 0.0
2016-Apr-28 06:33N 35°36' E 139°46'4 4.1
2016-Apr-28 05:33N 35°33' E 139°50'8 8.4
2016-Apr-28 04:33N 35°25' E 139°47'9 8.7
2016-Apr-28 03:33N 35°17' E 139°46'9 8.8
2016-Apr-28 02:33N 35°08' E 139°46'62 4.3
2016-Apr-27 12:17N 35°02' E 138°31'55 6.8
2016-Apr-27 04:15N 35°05' E 139°37'710.8
2016-Apr-27 03:33N 35°10' E 139°44'1010.1
2016-Apr-27 02:33N 35°20' E 139°42'8 7.7
2016-Apr-27 01:33N 35°28' E 139°42'1 0.7
2016-Apr-27 00:32N 35°27' E 139°42'0 0.0
2016-Apr-26 23:32N 35°27' E 139°42'0 0.0
2016-Apr-26 22:31N 35°27' E 139°42'0 0.1
2016-Apr-26 21:32N 35°27' E 139°42'0 0.0
2016-Apr-26 20:31N 35°27' E 139°42'0 0.0
2016-Apr-26 19:32N 35°27' E 139°42'0 0.0
2016-Apr-26 18:31N 35°27' E 139°42'0 0.1
2016-Apr-26 17:31N 35°27' E 139°42'0 0.0
2016-Apr-26 16:31N 35°27' E 139°42'0 0.0
2016-Apr-26 15:31N 35°27' E 139°42'0 0.0
2016-Apr-26 14:31N 35°27' E 139°42'0 0.0
2016-Apr-26 13:31N 35°27' E 139°42'0 0.0
2016-Apr-26 12:32N 35°27' E 139°42'0 0.0
2016-Apr-26 11:31N 35°27' E 139°42'0 0.0
2016-Apr-26 10:31N 35°27' E 139°42'0 0.0
2016-Apr-26 09:32N 35°27' E 139°42'0 0.0
2016-Apr-26 08:32N 35°27' E 139°42'3 3.1
2016-Apr-26 07:33N 35°24' E 139°41'0 0.1
2016-Apr-26 06:33N 35°24' E 139°41'1 1.2
2016-Apr-26 05:32N 35°23' E 139°40'0 0.0
2016-Apr-26 04:32N 35°23' E 139°40'0 0.1
2016-Apr-26 03:32N 35°23' E 139°40'0 0.0
2016-Apr-26 02:32N 35°23' E 139°40'3 3.6
2016-Apr-26 01:34N 35°20' E 139°43'9 8.7
2016-Apr-26 00:33N 35°12' E 139°47'10 9.5
2016-Apr-25 23:34N 35°03' E 139°43'11 9.9
2016-Apr-25 22:30N 34°56' E 139°33'51 4.3
2016-Apr-25 10:25N 35°02' E 138°30'48 6.6
2016-Apr-25 03:14N 35°01' E 139°29'810.8
2016-Apr-25 02:29N 35°05' E 139°37'1011.0
2016-Apr-25 01:32N 35°12' E 139°46'1111.3
2016-Apr-25 00:34N 35°23' E 139°41'2 1.6
2016-Apr-24 23:34N 35°24' E 139°41'1 0.8
2016-Apr-24 22:34N 35°23' E 139°40'2 2.4
2016-Apr-24 21:33N 35°21' E 139°42'10 9.6
2016-Apr-24 20:34N 35°13' E 139°47'1010.0
2016-Apr-24 19:33N 35°03' E 139°43'2310.1
2016-Apr-24 17:17N 34°50' E 139°21'17 0.5
2016-Apr-23 08:32N 35°03' E 139°33'1110.8
2016-Apr-23 07:32N 35°10' E 139°44'9 9.3
2016-Apr-23 06:34N 35°19' E 139°43'9 8.8
2016-Apr-23 05:34N 35°27' E 139°47'8 7.9
2016-Apr-23 04:34N 35°35' E 139°48'2 1.6
2016-Apr-23 03:34N 35°36' E 139°47'0 0.0
2016-Apr-23 02:34N 35°36' E 139°47'2 2.3
2016-Apr-23 01:34N 35°34' E 139°49'7 7.4
2016-Apr-23 00:33N 35°27' E 139°45'4 3.9
2016-Apr-22 23:34N 35°26' E 139°41'1 1.4
2016-Apr-22 22:32N 35°27' E 139°42'0 0.0
2016-Apr-22 21:32N 35°27' E 139°42'2 1.8
2016-Apr-22 20:33N 35°25' E 139°43'10 9.8
2016-Apr-22 19:33N 35°16' E 139°47'1010.1
2016-Apr-22 18:33N 35°06' E 139°45'1110.4
2016-Apr-22 17:29N 34°54' E 139°46'9 9.1
2016-Apr-22 16:32N 34°53' E 139°57'9 9.4
2016-Apr-22 15:33N 34°58' E 140°06'10 9.9
2016-Apr-22 14:33N 35°04' E 140°16'9 8.8
2016-Apr-22 13:29N 35°09' E 140°26'8 8.5
2016-Apr-22 12:33N 35°16' E 140°32'10 9.8
2016-Apr-22 11:32N 35°24' E 140°38'1010.1
2016-Apr-22 10:32N 35°32' E 140°46'20 8.8
2016-Apr-22 08:18N 35°51' E 140°49'810.2
2016-Apr-22 07:33N 35°58' E 140°44'  
Track history (hours):
 
Tides and Currents Weather Stations Pressure Air Temp Water Temp Dewpoint Dewpoint Depression Visibility Wind Speed Wind Dir Waves Ship Positions

Otagawa

Last reported at 2016-May-02 04:24 UTC. Time now 2016-May-02 21:16 UTC.
Position N 35°04' E 139°34'.

Length 70 m; draft 4.5 m.

Type: Ship. MMSI: 431001328.

Date/timePositionNaut miles runAvg speedWind from/ knotsBaromVisibWave heightAir tempDewpointWater temp
2016-May-02 04:24N 35°04' E 139°34'910.5
2016-May-02 03:33N 35°09' E 139°43'10 9.7
2016-May-02 02:33N 35°18' E 139°43'9 9.5
2016-May-02 01:33N 35°28' E 139°47'8 8.4
2016-May-02 00:33N 35°36' E 139°47'1 1.1
2016-May-01 23:33N 35°37' E 139°46'0 0.0
2016-May-01 22:33N 35°37' E 139°46'2 1.8
2016-May-01 21:33N 35°35' E 139°47'3 2.5
2016-May-01 20:33N 35°34' E 139°50'0 0.0
2016-May-01 19:33N 35°34' E 139°50'0 0.0
2016-May-01 18:33N 35°34' E 139°50'2 2.1
2016-May-01 17:33N 35°32' E 139°51'9 9.3
2016-May-01 16:34N 35°24' E 139°46'9 9.1
2016-May-01 15:33N 35°15' E 139°47'1010.3
2016-May-01 14:33N 35°05' E 139°45'9 9.2
2016-May-01 13:33N 34°56' E 139°46'9 8.7
2016-May-01 12:30N 34°53' E 139°56'9 9.2
2016-May-01 11:33N 34°58' E 140°05'9 9.3
2016-May-01 10:32N 35°03' E 140°15'11 9.0
2016-May-01 09:16N 35°11' E 140°25'7 9.4
2016-May-01 08:33N 35°17' E 140°30'9 9.2
2016-May-01 07:33N 35°24' E 140°36'8 8.6
2016-May-01 06:34N 35°30' E 140°43'10 9.9
2016-May-01 05:32N 35°38' E 140°51'20 9.9
2016-May-01 03:32N 35°58' E 140°56'  
2016-Apr-28 22:10N 35°04' E 140°17'6 9.8
2016-Apr-28 21:33N 35°00' E 140°11'12 9.7
2016-Apr-28 20:16N 34°54' E 139°58'14 8.1
2016-Apr-28 18:33N 35°00' E 139°43'1010.5
2016-Apr-28 17:34N 35°10' E 139°46'1010.2
2016-Apr-28 16:33N 35°20' E 139°42'1010.0
2016-Apr-28 15:33N 35°28' E 139°49'6 4.3
2016-Apr-28 14:13N 35°34' E 139°50'0 0.0
2016-Apr-28 13:19N 35°34' E 139°50'0 0.0
2016-Apr-28 12:19N 35°34' E 139°50'0 0.0
2016-Apr-28 11:31N 35°34' E 139°50'4 3.8
2016-Apr-28 10:33N 35°36' E 139°47'1 1.1
2016-Apr-28 09:33N 35°37' E 139°46'1 0.9
2016-Apr-28 08:33N 35°36' E 139°46'0 0.0
2016-Apr-28 07:33N 35°36' E 139°46'0 0.0
2016-Apr-28 06:33N 35°36' E 139°46'4 4.1
2016-Apr-28 05:33N 35°33' E 139°50'8 8.4
2016-Apr-28 04:33N 35°25' E 139°47'9 8.7
2016-Apr-28 03:33N 35°17' E 139°46'9 8.8
2016-Apr-28 02:33N 35°08' E 139°46'62 4.3
2016-Apr-27 12:17N 35°02' E 138°31'55 6.8
2016-Apr-27 04:15N 35°05' E 139°37'710.8
2016-Apr-27 03:33N 35°10' E 139°44'1010.1
2016-Apr-27 02:33N 35°20' E 139°42'8 7.7
2016-Apr-27 01:33N 35°28' E 139°42'1 0.7
2016-Apr-27 00:32N 35°27' E 139°42'0 0.0
2016-Apr-26 23:32N 35°27' E 139°42'0 0.0
2016-Apr-26 22:31N 35°27' E 139°42'0 0.1
2016-Apr-26 21:32N 35°27' E 139°42'0 0.0
2016-Apr-26 20:31N 35°27' E 139°42'0 0.0
2016-Apr-26 19:32N 35°27' E 139°42'0 0.0
2016-Apr-26 18:31N 35°27' E 139°42'0 0.1
2016-Apr-26 17:31N 35°27' E 139°42'0 0.0
2016-Apr-26 16:31N 35°27' E 139°42'0 0.0
2016-Apr-26 15:31N 35°27' E 139°42'0 0.0
2016-Apr-26 14:31N 35°27' E 139°42'0 0.0
2016-Apr-26 13:31N 35°27' E 139°42'0 0.0
2016-Apr-26 12:32N 35°27' E 139°42'0 0.0
2016-Apr-26 11:31N 35°27' E 139°42'0 0.0
2016-Apr-26 10:31N 35°27' E 139°42'0 0.0
2016-Apr-26 09:32N 35°27' E 139°42'0 0.0
2016-Apr-26 08:32N 35°27' E 139°42'3 3.1
2016-Apr-26 07:33N 35°24' E 139°41'0 0.1
2016-Apr-26 06:33N 35°24' E 139°41'1 1.2
2016-Apr-26 05:32N 35°23' E 139°40'0 0.0
2016-Apr-26 04:32N 35°23' E 139°40'0 0.1
2016-Apr-26 03:32N 35°23' E 139°40'0 0.0
2016-Apr-26 02:32N 35°23' E 139°40'3 3.6
2016-Apr-26 01:34N 35°20' E 139°43'9 8.7
2016-Apr-26 00:33N 35°12' E 139°47'10 9.5
2016-Apr-25 23:34N 35°03' E 139°43'11 9.9
2016-Apr-25 22:30N 34°56' E 139°33'51 4.3
2016-Apr-25 10:25N 35°02' E 138°30'48 6.6
2016-Apr-25 03:14N 35°01' E 139°29'810.8
2016-Apr-25 02:29N 35°05' E 139°37'1011.0
2016-Apr-25 01:32N 35°12' E 139°46'1111.3
2016-Apr-25 00:34N 35°23' E 139°41'2 1.6
2016-Apr-24 23:34N 35°24' E 139°41'1 0.8
2016-Apr-24 22:34N 35°23' E 139°40'2 2.4
2016-Apr-24 21:33N 35°21' E 139°42'10 9.6
2016-Apr-24 20:34N 35°13' E 139°47'1010.0
2016-Apr-24 19:33N 35°03' E 139°43'2310.1
2016-Apr-24 17:17N 34°50' E 139°21'17 0.5
2016-Apr-23 08:32N 35°03' E 139°33'1110.8
2016-Apr-23 07:32N 35°10' E 139°44'9 9.3
2016-Apr-23 06:34N 35°19' E 139°43'9 8.8
2016-Apr-23 05:34N 35°27' E 139°47'8 7.9
2016-Apr-23 04:34N 35°35' E 139°48'2 1.6
2016-Apr-23 03:34N 35°36' E 139°47'0 0.0
2016-Apr-23 02:34N 35°36' E 139°47'2 2.3
2016-Apr-23 01:34N 35°34' E 139°49'7 7.4
2016-Apr-23 00:33N 35°27' E 139°45'4 3.9
2016-Apr-22 23:34N 35°26' E 139°41'1 1.4
2016-Apr-22 22:32N 35°27' E 139°42'0 0.0
2016-Apr-22 21:32N 35°27' E 139°42'2 1.8
2016-Apr-22 20:33N 35°25' E 139°43'10 9.8
2016-Apr-22 19:33N 35°16' E 139°47'1010.1
2016-Apr-22 18:33N 35°06' E 139°45'1110.4
2016-Apr-22 17:29N 34°54' E 139°46'9 9.1
2016-Apr-22 16:32N 34°53' E 139°57'9 9.4
2016-Apr-22 15:33N 34°58' E 140°06'10 9.9
2016-Apr-22 14:33N 35°04' E 140°16'9 8.8
2016-Apr-22 13:29N 35°09' E 140°26'8 8.5
2016-Apr-22 12:33N 35°16' E 140°32'10 9.8
2016-Apr-22 11:32N 35°24' E 140°38'1010.1
2016-Apr-22 10:32N 35°32' E 140°46'20 8.8
2016-Apr-22 08:18N 35°51' E 140°49'810.2
2016-Apr-22 07:33N 35°58' E 140°44'  

Dump ship's entire track history